Aeroporto :
LOGIN :

Iscrizione | Disclaimer

   EN    FR    IT 

 










Sommario :    VFR   VFR Marginale   IFR   IFR Intensivo   IFR Molto Intensivo
Visibilità : 
Base nubi : 
>= 8 km
>= 3000ft
5 / 8 km
1000 / 3000 ft
1500m / 5 km
500 / 1000 ft
800 / 1500m
200 / 500 ft
< 800m
< 200 ft
Simboli :   Temporali  Nebbia  Neve Forte  Precipitazioni Forti  Vento > 20 kt
SIGMETs :   Varie  Temporali  Ghiacco  Turbolenza  Onda orograficha  Ceneri Vulcaniche







- Altitudine del aeroporto : 659 ft
- Codice IATA : LGG


EBLG - Liège

ULTIMO METAR :
  • 181420Z 16014KT CAVOK 07/02 Q1016 NOSIG

METARs OBSOLETI :
  • 181350Z 15011KT CAVOK 07/03 Q1017 NOSIG
  • 181320Z 16011KT 130V190 9999 FEW018 07/03 Q1018 NOSIG
  • 181250Z 17016KT 9999 FEW018 07/03 Q1018 NOSIG
  • 181220Z 17015KT 9999 FEW016 07/03 Q1019 NOSIG
  • 181150Z 17011KT 9999 FEW016 07/03 Q1019 NOSIG

TAF TAF EBLG
Valido dal 18 a 12 ore il 19 a 18 ore UTC


181110Z 1812/1918 16010KT 9999 FEW015
BECMG 1903/1905 BKN008
TEMPO 1902/1905 4000 RA BKN004 SCT020TCU
BECMG 1904/1906 22010KT
BECMG 1910/1912 SCT012
PROB30
TEMPO 1910/1918 4000 SHRA BKN012 SCT020CB
Nessun NOTAM noto per questo aeroporto.



MetMap, La meteo Aeronautica in un colpo d'occhio ! - Copyright ORBIFLY Dicembre 2007 - Disclaimer

ORBIFLY MET'MAP TEAM :

Programmazione e sviluppo : Alexandra Zaïnal
Concezione e sviluppo : Baudouin d'Aumeries
Co-Programmazione e sviluppo : Marc-Olivier Méhu
Supporto tecnico e logistico : Manuel Goepfert
Aiuto per la traduzione : Arnaldo La Scala

Contatto : metmap@orbifly.com




FONTI E CREDITI :

   NOAA